Time;durP1;ratioP1;P1;durP2;ratioP2;P2;SDS_P1;SDS_P2;PMS_P1;PMS_P2;Temp;Humidity;BMP_temperature;BMP_pressure;BME280_temperature;BME280_humidity;BME280_pressure;Samples;Min_cycle;Max_cycle;Signal;HPM_P1;HPM_P2
2021/03/12 00:00:10;;;;;;;15.45;2.47;;;;;;;;;;5159449;27;20215;-51
2021/03/12 00:02:37;;;;;;;7.75;1.60;;;;;;;;;;5158971;27;20323;-52
2021/03/12 00:05:07;;;;;;;10.32;2.00;;;;;;;;;;5159151;27;20208;-56
2021/03/12 00:07:34;;;;;;;3.40;1.27;;;;;;;;;;5159059;27;20211;-55
2021/03/12 00:10:02;;;;;;;7.85;2.17;;;;;;;;;;5159083;27;20188;-55
2021/03/12 00:12:31;;;;;;;6.70;1.50;;;;;;;;;;5159440;27;20202;-58
2021/03/12 00:14:58;;;;;;;6.32;1.83;;;;;;;;;;5159151;27;20228;-56
2021/03/12 00:17:25;;;;;;;4.38;1.00;;;;;;;;;;5159890;27;20210;-54
2021/03/12 00:22:56;;;;;;;7.43;1.58;;;;;;;;;;5138009;28;20284;-59
2021/03/12 00:25:25;;;;;;;7.72;1.45;;;;;;;;;;5137817;28;20200;-55
2021/03/12 00:27:52;;;;;;;10.55;1.55;;;;;;;;;;5137999;28;20200;-52
2021/03/12 00:30:20;;;;;;;8.07;1.35;;;;;;;;;;5138090;28;20264;-58
2021/03/12 00:32:47;;;;;;;4.63;1.50;;;;;;;;;;5138158;28;20205;-52
2021/03/12 00:35:20;;;;;;;5.05;1.45;;;;;;;;;;5138112;28;20195;-54
2021/03/12 00:37:46;;;;;;;4.35;1.40;;;;;;;;;;5137668;28;20197;-49
2021/03/12 00:40:15;;;;;;;4.82;1.45;;;;;;;;;;5137907;28;20204;-52
2021/03/12 00:42:43;;;;;;;7.63;2.90;;;;;;;;;;5137862;28;20224;-59
2021/03/12 00:45:10;;;;;;;3.63;1.30;;;;;;;;;;5128826;28;20192;-51
2021/03/12 00:47:39;;;;;;;6.05;2.00;;;;;;;;;;5137688;28;20222;-55
2021/03/12 00:50:06;;;;;;;10.30;1.75;;;;;;;;;;5137505;28;20204;-53
2021/03/12 00:52:33;;;;;;;8.05;1.58;;;;;;;;;;5137640;28;20223;-55
2021/03/12 00:55:30;;;;;;;12.25;3.58;;;;;;;;;;5138474;28;20188;-50
2021/03/12 00:57:58;;;;;;;10.25;1.80;;;;;;;;;;5135958;28;20236;-58
2021/03/12 01:00:25;;;;;;;8.18;1.85;;;;;;;;;;5137596;28;20214;-58
2021/03/12 01:02:53;;;;;;;7.80;2.28;;;;;;;;;;5137101;28;20231;-54
2021/03/12 01:05:22;;;;;;;7.20;1.90;;;;;;;;;;5136981;28;20192;-53
2021/03/12 01:07:50;;;;;;;7.20;2.10;;;;;;;;;;5137501;28;20208;-53
2021/03/12 01:10:35;;;;;;;5.22;2.08;;;;;;;;;;5137078;28;20216;-52
2021/03/12 01:13:03;;;;;;;5.43;1.65;;;;;;;;;;5137455;28;20197;-55
2021/03/12 01:15:30;;;;;;;4.72;1.77;;;;;;;;;;5137298;28;20201;-55
2021/03/12 01:17:57;;;;;;;6.93;1.25;;;;;;;;;;5136887;28;20235;-56
2021/03/12 01:20:25;;;;;;;7.57;2.25;;;;;;;;;;5136834;28;20217;-52
2021/03/12 01:22:52;;;;;;;4.57;1.55;;;;;;;;;;5137261;28;20232;-52
2021/03/12 01:25:38;;;;;;;6.50;1.58;;;;;;;;;;5137300;28;20205;-48
2021/03/12 01:28:06;;;;;;;5.72;1.73;;;;;;;;;;5137036;28;20192;-57
2021/03/12 01:30:34;;;;;;;4.57;1.80;;;;;;;;;;5136984;28;20223;-50
2021/03/12 01:33:00;;;;;;;8.85;1.85;;;;;;;;;;5136397;28;20196;-54
2021/03/12 01:35:27;;;;;;;7.20;2.08;;;;;;;;;;5119180;28;20204;-54
2021/03/12 01:38:13;;;;;;;9.38;1.58;;;;;;;;;;5136938;28;20192;-51
2021/03/12 01:40:41;;;;;;;14.68;2.00;;;;;;;;;;5136683;28;20193;-55
2021/03/12 01:43:09;;;;;;;8.68;2.20;;;;;;;;;;5137078;28;20235;-57
2021/03/12 01:45:46;;;;;;;8.23;1.92;;;;;;;;;;5136974;28;20188;-56
2021/03/12 01:48:13;;;;;;;9.25;2.55;;;;;;;;;;5136199;28;20200;-57
2021/03/12 01:50:41;;;;;;;11.65;2.25;;;;;;;;;;5137100;28;20218;-52
2021/03/12 01:53:25;;;;;;;6.20;1.67;;;;;;;;;;5136732;28;20265;-52
2021/03/12 01:55:51;;;;;;;8.30;2.15;;;;;;;;;;5136434;28;20193;-47
2021/03/12 01:58:20;;;;;;;10.05;3.20;;;;;;;;;;5136145;28;20239;-54
2021/03/12 02:01:23;;;;;;;7.88;1.90;;;;;;;;;;5136487;28;20209;-51
2021/03/12 02:03:50;;;;;;;7.93;2.13;;;;;;;;;;5131290;28;20217;-51
2021/03/12 02:06:17;;;;;;;5.13;1.65;;;;;;;;;;5135743;28;20209;-51
2021/03/12 02:08:55;;;;;;;6.13;3.33;;;;;;;;;;5136021;28;20200;-55
2021/03/12 02:11:22;;;;;;;6.25;1.88;;;;;;;;;;5134004;28;20675;-53
2021/03/12 02:13:55;;;;;;;6.65;2.10;;;;;;;;;;5135969;28;20197;-47
2021/03/12 02:16:34;;;;;;;8.57;1.95;;;;;;;;;;5135407;28;20219;-52
2021/03/12 02:19:04;;;;;;;15.43;2.40;;;;;;;;;;5132417;28;20218;-59
2021/03/12 02:21:35;;;;;;;5.82;2.40;;;;;;;;;;5136334;28;20184;-51
2021/03/12 02:27:06;;;;;;;8.95;2.33;;;;;;;;;;5135996;28;20215;-50
2021/03/12 02:29:34;;;;;;;13.52;2.38;;;;;;;;;;5136234;28;20208;-50
2021/03/12 02:32:02;;;;;;;11.10;2.10;;;;;;;;;;5136380;27;20201;-56
2021/03/12 02:34:31;;;;;;;10.30;2.15;;;;;;;;;;5136382;27;20200;-55
2021/03/12 02:37:00;;;;;;;7.47;2.47;;;;;;;;;;5136057;28;20188;-56
2021/03/12 02:39:28;;;;;;;9.95;3.28;;;;;;;;;;5136423;28;20212;-51
2021/03/12 02:41:58;;;;;;;11.18;2.30;;;;;;;;;;5136173;28;20193;-59
2021/03/12 02:44:27;;;;;;;12.00;3.65;;;;;;;;;;5136176;28;20246;-57
2021/03/12 02:46:55;;;;;;;9.15;2.13;;;;;;;;;;5136471;28;20204;-51
2021/03/12 02:49:45;;;;;;;14.00;2.33;;;;;;;;;;5136533;28;20201;-51
2021/03/12 02:52:12;;;;;;;15.43;2.60;;;;;;;;;;5136033;28;20200;-54
2021/03/12 02:54:39;;;;;;;10.15;2.35;;;;;;;;;;5136086;28;20192;-56
2021/03/12 02:57:17;;;;;;;11.60;2.47;;;;;;;;;;5135360;28;20201;-51
2021/03/12 02:59:45;;;;;;;14.27;5.20;;;;;;;;;;5135538;28;20249;-46
2021/03/12 03:02:12;;;;;;;11.18;2.72;;;;;;;;;;5136444;28;20188;-51
2021/03/12 03:05:04;;;;;;;11.80;3.00;;;;;;;;;;5135875;28;20199;-56
2021/03/12 03:07:30;;;;;;;7.95;2.40;;;;;;;;;;5134034;28;20247;-57
2021/03/12 03:09:59;;;;;;;14.27;2.58;;;;;;;;;;5135972;28;20185;-49
2021/03/12 03:12:26;;;;;;;12.27;2.60;;;;;;;;;;5135571;28;20196;-50
2021/03/12 03:14:56;;;;;;;10.82;2.78;;;;;;;;;;5136253;27;20212;-50
2021/03/12 03:17:23;;;;;;;19.55;3.60;;;;;;;;;;5135919;28;20200;-52
2021/03/12 03:19:52;;;;;;;6.25;2.20;;;;;;;;;;5136641;27;20222;-53
2021/03/12 03:22:19;;;;;;;17.33;2.67;;;;;;;;;;5136463;27;20204;-57
2021/03/12 03:24:46;;;;;;;11.15;2.00;;;;;;;;;;5136285;28;20200;-53
2021/03/12 03:27:18;;;;;;;12.07;3.13;;;;;;;;;;5136510;27;20196;-49
2021/03/12 03:29:45;;;;;;;11.48;2.17;;;;;;;;;;5139004;28;20205;-54
2021/03/12 03:32:13;;;;;;;17.55;2.63;;;;;;;;;;5139495;28;20192;-52
2021/03/12 03:34:53;;;;;;;7.50;1.58;;;;;;;;;;5139212;28;20205;-52
2021/03/12 03:37:20;;;;;;;14.55;2.90;;;;;;;;;;5139396;28;20256;-55
2021/03/12 03:39:47;;;;;;;8.35;2.92;;;;;;;;;;5139261;28;20203;-53
2021/03/12 03:42:15;;;;;;;11.00;2.42;;;;;;;;;;5139395;27;20463;-53
2021/03/12 03:44:42;;;;;;;15.95;3.15;;;;;;;;;;5139319;28;20213;-50
2021/03/12 03:47:16;;;;;;;9.20;2.13;;;;;;;;;;5138880;28;20205;-57
2021/03/12 03:49:43;;;;;;;8.02;2.30;;;;;;;;;;5139455;28;20261;-52
2021/03/12 03:52:10;;;;;;;11.48;2.90;;;;;;;;;;5138616;28;20315;-53
2021/03/12 03:57:41;;;;;;;9.10;1.73;;;;;;;;;;5138052;28;20247;-60
2021/03/12 04:00:09;;;;;;;8.18;2.17;;;;;;;;;;5139231;28;20212;-53
2021/03/12 04:03:04;;;;;;;13.10;1.98;;;;;;;;;;5138304;28;20209;-52
2021/03/12 04:05:32;;;;;;;10.52;2.00;;;;;;;;;;5136954;28;20228;-57
2021/03/12 04:08:00;;;;;;;9.05;2.95;;;;;;;;;;5138506;28;20204;-54
2021/03/12 04:11:00;;;;;;;6.10;2.50;;;;;;;;;;5138979;28;20188;-52
2021/03/12 04:13:27;;;;;;;8.95;2.25;;;;;;;;;;5151626;27;20211;-56
2021/03/12 04:15:54;;;;;;;12.10;3.85;;;;;;;;;;5157944;27;20187;-51
2021/03/12 04:18:21;;;;;;;14.30;2.97;;;;;;;;;;5158821;27;20204;-55
2021/03/12 04:20:49;;;;;;;15.90;5.03;;;;;;;;;;5159398;27;20207;-48
2021/03/12 04:23:17;;;;;;;12.80;2.63;;;;;;;;;;5159196;27;20216;-53
2021/03/12 04:25:45;;;;;;;9.13;2.40;;;;;;;;;;5158065;27;20199;-58
2021/03/12 04:28:12;;;;;;;12.68;2.50;;;;;;;;;;5159182;27;20255;-49
2021/03/12 04:30:58;;;;;;;8.13;3.47;;;;;;;;;;5159263;27;20204;-58
2021/03/12 04:33:25;;;;;;;7.85;2.10;;;;;;;;;;5142205;27;20249;-54
2021/03/12 04:35:53;;;;;;;10.15;2.08;;;;;;;;;;5138468;28;20192;-60
2021/03/12 04:38:24;;;;;;;16.83;2.80;;;;;;;;;;5137765;28;20197;-50
2021/03/12 04:40:51;;;;;;;9.85;3.85;;;;;;;;;;5137515;28;20203;-55
2021/03/12 04:43:18;;;;;;;18.70;2.65;;;;;;;;;;5126054;28;20216;-56
2021/03/12 04:46:07;;;;;;;11.10;2.85;;;;;;;;;;5129030;28;20200;-52
2021/03/12 04:48:35;;;;;;;13.20;3.10;;;;;;;;;;5128896;28;20209;-52
2021/03/12 04:51:03;;;;;;;16.90;4.80;;;;;;;;;;5137807;28;20185;-52
2021/03/12 04:53:32;;;;;;;9.57;2.67;;;;;;;;;;5137560;28;20191;-52
2021/03/12 04:55:59;;;;;;;9.27;2.75;;;;;;;;;;5137473;28;20192;-51
2021/03/12 04:58:28;;;;;;;13.93;3.90;;;;;;;;;;5118515;28;20181;-52
2021/03/12 05:03:59;;;;;;;8.05;2.60;;;;;;;;;;5137350;28;20221;-54
2021/03/12 05:06:29;;;;;;;11.57;2.75;;;;;;;;;;5137212;28;20196;-55
2021/03/12 05:08:57;;;;;;;7.18;2.90;;;;;;;;;;5137698;28;20197;-45
2021/03/12 05:11:25;;;;;;;13.35;3.40;;;;;;;;;;5150461;27;20219;-52
2021/03/12 05:13:54;;;;;;;14.02;3.42;;;;;;;;;;5158823;27;20253;-54
2021/03/12 05:16:21;;;;;;;8.82;3.30;;;;;;;;;;5158575;27;20208;-55
2021/03/12 05:18:48;;;;;;;10.52;2.35;;;;;;;;;;5158031;27;20245;-54
2021/03/12 05:21:37;;;;;;;13.93;2.97;;;;;;;;;;5158365;27;20200;-54
2021/03/12 05:24:05;;;;;;;13.23;3.60;;;;;;;;;;5157955;27;20243;-50
2021/03/12 05:26:32;;;;;;;23.67;3.17;;;;;;;;;;5157716;27;20199;-54
2021/03/12 05:29:12;;;;;;;9.52;2.83;;;;;;;;;;5157788;27;20227;-57
2021/03/12 05:31:38;;;;;;;18.85;3.40;;;;;;;;;;5157408;27;20240;-56
2021/03/12 05:34:06;;;;;;;6.60;2.05;;;;;;;;;;5157704;27;20195;-54
2021/03/12 05:36:38;;;;;;;12.80;3.92;;;;;;;;;;5157697;27;20477;-60
2021/03/12 05:39:06;;;;;;;18.15;5.47;;;;;;;;;;5157110;27;20203;-55
2021/03/12 05:41:33;;;;;;;16.58;3.03;;;;;;;;;;5136679;28;20197;-55
2021/03/12 05:44:03;;;;;;;6.25;2.45;;;;;;;;;;5136502;28;20197;-60
2021/03/12 05:46:31;;;;;;;12.30;4.10;;;;;;;;;;5135944;28;20188;-57
2021/03/12 05:48:58;;;;;;;9.23;2.10;;;;;;;;;;5136347;28;20201;-56
2021/03/12 05:51:38;;;;;;;11.75;2.67;;;;;;;;;;5136370;28;20201;-53
2021/03/12 05:54:07;;;;;;;12.10;3.47;;;;;;;;;;5136353;28;20215;-52
2021/03/12 05:56:35;;;;;;;11.38;2.30;;;;;;;;;;5155798;27;20338;-54
2021/03/12 05:59:04;;;;;;;6.85;1.70;;;;;;;;;;5156423;27;20168;-50
2021/03/12 06:01:40;;;;;;;8.82;2.42;;;;;;;;;;5156236;27;20198;-53
2021/03/12 06:04:14;;;;;;;11.52;2.90;;;;;;;;;;5156574;27;20222;-55
2021/03/12 06:06:40;;;;;;;11.65;2.05;;;;;;;;;;5156821;27;20208;-57
2021/03/12 06:09:08;;;;;;;8.05;3.58;;;;;;;;;;5155852;27;20226;-54
2021/03/12 06:11:35;;;;;;;16.08;1.90;;;;;;;;;;5156987;27;20254;-59
2021/03/12 06:14:01;;;;;;;13.30;3.45;;;;;;;;;;5156722;27;20188;-56
2021/03/12 06:16:37;;;;;;;9.90;2.63;;;;;;;;;;5156195;27;20215;-54
2021/03/12 06:19:19;;;;;;;8.00;1.92;;;;;;;;;;5151630;27;20200;-56
2021/03/12 06:22:07;;;;;;;9.52;2.42;;;;;;;;;;5150383;27;20206;-56
2021/03/12 06:24:35;;;;;;;12.82;2.72;;;;;;;;;;5156152;27;20280;-52
2021/03/12 06:27:02;;;;;;;8.43;2.42;;;;;;;;;;5156337;27;20196;-54
2021/03/12 06:29:36;;;;;;;8.57;2.30;;;;;;;;;;5155824;27;20196;-56
2021/03/12 06:32:03;;;;;;;12.05;3.15;;;;;;;;;;5152668;27;20208;-53
2021/03/12 06:35:00;;;;;;;9.80;2.03;;;;;;;;;;5144922;27;20188;-58
2021/03/12 06:37:29;;;;;;;12.50;2.47;;;;;;;;;;5149875;27;20278;-55
2021/03/12 06:40:20;;;;;;;8.57;2.28;;;;;;;;;;5153444;27;20224;-60
2021/03/12 06:43:17;;;;;;;26.50;8.70;;;;;;;;;;5146591;28;20215;-55
2021/03/12 06:46:01;;;;;;;12.05;3.70;;;;;;;;;;5091854;28;20222;-56
2021/03/12 06:48:29;;;;;;;17.75;3.20;;;;;;;;;;5149848;27;20207;-56
2021/03/12 06:50:57;;;;;;;13.90;4.30;;;;;;;;;;5155680;27;20191;-61
2021/03/12 06:53:31;;;;;;;15.25;3.63;;;;;;;;;;5154841;28;20345;-52
2021/03/12 06:55:59;;;;;;;11.02;3.00;;;;;;;;;;5153926;28;20203;-54
2021/03/12 06:58:26;;;;;;;8.38;2.97;;;;;;;;;;5146891;28;20177;-55
2021/03/12 07:01:19;;;;;;;15.18;3.08;;;;;;;;;;5134455;28;20196;-58
2021/03/12 07:03:46;;;;;;;16.60;3.65;;;;;;;;;;5155948;27;20228;-57
2021/03/12 07:06:16;;;;;;;20.52;3.10;;;;;;;;;;5158881;27;20199;-56
2021/03/12 07:08:45;;;;;;;14.38;3.10;;;;;;;;;;5159246;27;20195;-53
2021/03/12 07:11:19;;;;;;;6.50;3.00;;;;;;;;;;5159093;27;20235;-52
2021/03/12 07:13:59;;;;;;;15.10;3.35;;;;;;;;;;5159001;27;20191;-52
2021/03/12 07:16:27;;;;;;;10.82;2.47;;;;;;;;;;5155795;27;20180;-54
2021/03/12 07:18:55;;;;;;;12.68;2.72;;;;;;;;;;5138644;28;20219;-50
2021/03/12 07:21:25;;;;;;;9.30;2.90;;;;;;;;;;5138988;28;20207;-53
2021/03/12 07:23:53;;;;;;;14.13;2.92;;;;;;;;;;5138554;28;20212;-54
2021/03/12 07:26:21;;;;;;;11.90;2.58;;;;;;;;;;5138393;28;20189;-52
2021/03/12 07:29:08;;;;;;;12.60;2.72;;;;;;;;;;5141436;27;20218;-56
2021/03/12 07:31:38;;;;;;;7.30;3.13;;;;;;;;;;5157050;27;20207;-55
2021/03/12 07:34:08;;;;;;;11.95;3.20;;;;;;;;;;5159463;27;20208;-57
2021/03/12 07:36:37;;;;;;;17.45;3.00;;;;;;;;;;5158958;27;20208;-60
2021/03/12 07:39:05;;;;;;;8.40;2.42;;;;;;;;;;5138887;27;20479;-53
2021/03/12 07:41:32;;;;;;;11.57;2.90;;;;;;;;;;5139008;28;20204;-55
2021/03/12 07:44:29;;;;;;;9.63;2.15;;;;;;;;;;5154755;27;20231;-57
2021/03/12 07:46:57;;;;;;;13.65;2.80;;;;;;;;;;5155067;27;20249;-57
2021/03/12 07:49:36;;;;;;;12.30;3.20;;;;;;;;;;5158194;27;20183;-56
2021/03/12 07:52:04;;;;;;;18.17;4.05;;;;;;;;;;5151388;27;20200;-56
2021/03/12 07:54:50;;;;;;;19.30;3.10;;;;;;;;;;5158091;27;20192;-50
2021/03/12 07:57:37;;;;;;;12.85;3.50;;;;;;;;;;5158510;27;20187;-58
2021/03/12 08:00:05;;;;;;;22.35;3.25;;;;;;;;;;5148862;27;20195;-51
2021/03/12 08:02:51;;;;;;;13.05;3.50;;;;;;;;;;5158203;27;20195;-56
2021/03/12 08:05:41;;;;;;;14.90;2.60;;;;;;;;;;5156566;27;20241;-52
2021/03/12 08:08:23;;;;;;;9.68;3.60;;;;;;;;;;5132772;28;20683;-54
2021/03/12 08:11:16;;;;;;;12.30;2.60;;;;;;;;;;5136848;28;20371;-53
2021/03/12 08:13:43;;;;;;;12.60;3.63;;;;;;;;;;5137917;28;20418;-56
2021/03/12 08:16:11;;;;;;;10.53;2.87;;;;;;;;;;5136256;28;20436;-55
2021/03/12 08:18:38;;;;;;;10.47;2.60;;;;;;;;;;5146121;27;20452;-59
2021/03/12 08:21:20;;;;;;;8.87;2.47;;;;;;;;;;5157529;27;20434;-54
2021/03/12 08:23:46;;;;;;;7.10;2.23;;;;;;;;;;5157441;27;20472;-56
2021/03/12 08:26:14;;;;;;;11.90;4.33;;;;;;;;;;5154512;27;20483;-56
2021/03/12 08:28:41;;;;;;;11.50;4.00;;;;;;;;;;5149721;27;20441;-51
2021/03/12 08:31:30;;;;;;;14.37;4.20;;;;;;;;;;5156928;27;20429;-56
2021/03/12 08:33:57;;;;;;;9.13;2.63;;;;;;;;;;5136999;28;20447;-55
2021/03/12 08:36:32;;;;;;;7.83;2.13;;;;;;;;;;5151578;27;20448;-55
2021/03/12 08:39:26;;;;;;;6.53;2.00;;;;;;;;;;5157473;27;20452;-53
2021/03/12 08:41:58;;;;;;;9.63;3.90;;;;;;;;;;5136083;28;20514;-55
2021/03/12 08:44:41;;;;;;;16.00;4.30;;;;;;;;;;5151568;27;20489;-56
2021/03/12 08:47:08;;;;;;;10.20;2.67;;;;;;;;;;5155064;27;20475;-57
2021/03/12 08:49:41;;;;;;;12.60;2.83;;;;;;;;;;5157566;27;20438;-57
2021/03/12 08:55:13;;;;;;;8.30;2.53;;;;;;;;;;5149416;27;20416;-54
2021/03/12 08:57:43;;;;;;;5.87;2.17;;;;;;;;;;5139758;27;20446;-59
2021/03/12 09:00:20;;;;;;;14.27;3.60;;;;;;;;;;5155774;27;20503;-56
2021/03/12 09:02:47;;;;;;;12.80;2.30;;;;;;;;;;5156941;27;20456;-49
2021/03/12 09:05:25;;;;;;;14.30;2.60;;;;;;;;;;5156552;27;20513;-54
2021/03/12 09:08:13;;;;;;;8.93;2.57;;;;;;;;;;5157262;27;20426;-60
2021/03/12 09:10:41;;;;;;;8.70;2.43;;;;;;;;;;5156940;27;20481;-55
2021/03/12 09:13:17;;;;;;;12.20;2.17;;;;;;;;;;5154619;27;20470;-53
2021/03/12 09:16:01;;;;;;;8.57;3.07;;;;;;;;;;5135998;28;20509;-59
2021/03/12 09:18:32;;;;;;;14.10;3.23;;;;;;;;;;5153340;27;20448;-53
2021/03/12 09:21:00;;;;;;;13.63;2.80;;;;;;;;;;5149891;27;20474;-55
2021/03/12 09:23:45;;;;;;;14.37;3.67;;;;;;;;;;5140574;27;20493;-56
2021/03/12 09:26:12;;;;;;;11.77;3.43;;;;;;;;;;5137483;28;20454;-50
2021/03/12 09:28:40;;;;;;;16.03;3.07;;;;;;;;;;5137697;28;20758;-56
2021/03/12 09:31:17;;;;;;;14.40;3.10;;;;;;;;;;5137394;28;20457;-53
2021/03/12 09:33:44;;;;;;;12.57;3.90;;;;;;;;;;5138279;28;20466;-54
2021/03/12 09:36:25;;;;;;;10.00;2.57;;;;;;;;;;5137801;28;20458;-58
2021/03/12 09:38:52;;;;;;;8.50;3.30;;;;;;;;;;5137975;28;20576;-53
2021/03/12 09:41:20;;;;;;;19.53;3.60;;;;;;;;;;5137124;28;20446;-56
2021/03/12 09:44:11;;;;;;;11.33;2.50;;;;;;;;;;5136941;28;20928;-54
2021/03/12 09:46:41;;;;;;;9.53;2.33;;;;;;;;;;5122684;28;20450;-64
2021/03/12 09:49:33;;;;;;;9.40;2.43;;;;;;;;;;5137311;28;20448;-50
2021/03/12 09:52:01;;;;;;;9.10;2.20;;;;;;;;;;5135940;28;20469;-57
2021/03/12 09:54:32;;;;;;;14.20;2.27;;;;;;;;;;5136462;28;20461;-54
2021/03/12 09:57:30;;;;;;;13.63;3.37;;;;;;;;;;5136899;28;20522;-51
2021/03/12 10:00:04;;;;;;;15.03;3.37;;;;;;;;;;5155713;27;20433;-54
2021/03/12 10:02:34;;;;;;;7.27;1.80;;;;;;;;;;5157652;27;20462;-55
2021/03/12 10:05:02;;;;;;;10.10;3.00;;;;;;;;;;5148774;27;20445;-56
2021/03/12 10:07:37;;;;;;;12.27;2.77;;;;;;;;;;5157533;27;20521;-53
2021/03/12 10:10:29;;;;;;;7.87;2.40;;;;;;;;;;5157494;27;20449;-54
2021/03/12 10:12:57;;;;;;;7.13;2.30;;;;;;;;;;5157893;27;20456;-56
2021/03/12 10:15:24;;;;;;;13.53;2.57;;;;;;;;;;5158070;27;20491;-53
2021/03/12 10:17:54;;;;;;;10.40;2.47;;;;;;;;;;5157022;27;20445;-51
2021/03/12 10:20:22;;;;;;;8.77;2.23;;;;;;;;;;5141214;27;20482;-61
2021/03/12 10:22:50;;;;;;;10.47;2.33;;;;;;;;;;5135997;28;20442;-51
2021/03/12 10:25:27;;;;;;;12.63;2.80;;;;;;;;;;5135272;28;20442;-56
2021/03/12 10:27:55;;;;;;;5.83;2.10;;;;;;;;;;5133693;28;20446;-51
2021/03/12 10:30:23;;;;;;;10.77;2.87;;;;;;;;;;5134591;28;20456;-55
2021/03/12 10:32:51;;;;;;;7.23;2.00;;;;;;;;;;5133270;28;20439;-58
2021/03/12 10:35:24;;;;;;;9.30;3.07;;;;;;;;;;5133563;28;20476;-57
2021/03/12 10:37:57;;;;;;;10.40;2.43;;;;;;;;;;5142780;27;20695;-57
2021/03/12 10:40:24;;;;;;;5.03;2.50;;;;;;;;;;5154470;27;20433;-52
2021/03/12 10:42:51;;;;;;;8.83;2.33;;;;;;;;;;5141307;27;20460;-54
2021/03/12 10:45:48;;;;;;;9.93;2.07;;;;;;;;;;5133814;28;20459;-54
2021/03/12 10:48:15;;;;;;;12.60;2.00;;;;;;;;;;5135796;27;20445;-53
2021/03/12 10:50:50;;;;;;;8.10;2.40;;;;;;;;;;5155536;28;20449;-57
2021/03/12 10:53:28;;;;;;;10.93;2.30;;;;;;;;;;5156569;28;20449;-54
2021/03/12 10:56:01;;;;;;;11.43;2.97;;;;;;;;;;5152896;28;20506;-58
2021/03/12 10:58:29;;;;;;;7.40;1.97;;;;;;;;;;5136094;28;20446;-59
2021/03/12 11:01:14;;;;;;;11.53;1.73;;;;;;;;;;5136073;28;20434;-58
2021/03/12 11:03:41;;;;;;;7.80;2.33;;;;;;;;;;5134946;27;20490;-51
2021/03/12 11:06:12;;;;;;;6.53;1.93;;;;;;;;;;5133230;28;20503;-58
2021/03/12 11:08:44;;;;;;;9.17;2.33;;;;;;;;;;5133149;28;20461;-57
2021/03/12 11:11:12;;;;;;;8.00;2.03;;;;;;;;;;5134008;28;20442;-56
2021/03/12 11:13:40;;;;;;;5.57;2.00;;;;;;;;;;5132343;28;20451;-57
2021/03/12 11:16:40;;;;;;;7.03;1.87;;;;;;;;;;5119519;28;20485;-55
2021/03/12 11:19:17;;;;;;;9.83;1.77;;;;;;;;;;5114396;28;20463;-62
2021/03/12 11:21:50;;;;;;;11.23;2.27;;;;;;;;;;5113582;28;20478;-57
2021/03/12 11:24:44;;;;;;;9.07;2.70;;;;;;;;;;5118125;28;20674;-60
2021/03/12 11:27:17;;;;;;;11.93;1.53;;;;;;;;;;5133369;28;20456;-54
2021/03/12 11:29:44;;;;;;;9.90;2.00;;;;;;;;;;5129565;28;20443;-52
2021/03/12 11:32:13;;;;;;;7.03;1.97;;;;;;;;;;5124666;28;20475;-50
2021/03/12 11:34:43;;;;;;;6.60;1.80;;;;;;;;;;5135580;28;20457;-55
2021/03/12 11:37:10;;;;;;;6.47;1.93;;;;;;;;;;5135061;27;20454;-54
2021/03/12 11:42:43;;;;;;;9.53;2.60;;;;;;;;;;5135436;27;20409;-53
2021/03/12 11:45:11;;;;;;;7.80;2.00;;;;;;;;;;5135625;27;20410;-57
2021/03/12 11:48:03;;;;;;;8.80;2.03;;;;;;;;;;5135180;28;20454;-57
2021/03/12 11:50:31;;;;;;;5.27;1.57;;;;;;;;;;5141159;27;20457;-58
2021/03/12 11:52:59;;;;;;;6.80;1.73;;;;;;;;;;5137665;28;20458;-60
2021/03/12 11:55:31;;;;;;;9.57;1.93;;;;;;;;;;5144380;27;20616;-55
2021/03/12 11:57:57;;;;;;;12.30;1.80;;;;;;;;;;5157808;27;20453;-58
2021/03/12 12:00:25;;;;;;;11.03;2.00;;;;;;;;;;5157544;27;20495;-55
2021/03/12 12:03:12;;;;;;;3.90;1.35;;;;;;;;;;5122128;27;20512;-56
2021/03/12 12:05:39;;;;;;;7.63;1.77;;;;;;;;;;5115677;28;20454;-63
2021/03/12 12:08:19;;;;;;;3.73;1.63;;;;;;;;;;5116544;28;20561;-57
2021/03/12 12:11:16;;;;;;;9.30;2.33;;;;;;;;;;5116133;28;20450;-57
2021/03/12 12:13:43;;;;;;;6.97;1.93;;;;;;;;;;5148417;27;20457;-55
2021/03/12 12:16:10;;;;;;;14.00;2.63;;;;;;;;;;5157293;27;20441;-49
2021/03/12 12:19:01;;;;;;;4.47;1.60;;;;;;;;;;5156704;27;20449;-51
2021/03/12 12:21:28;;;;;;;6.77;2.00;;;;;;;;;;5139958;27;20489;-54
2021/03/12 12:23:56;;;;;;;5.90;1.90;;;;;;;;;;5136523;28;20493;-57
2021/03/12 12:26:26;;;;;;;8.57;2.57;;;;;;;;;;5137140;28;20435;-58
2021/03/12 12:28:53;;;;;;;8.90;2.30;;;;;;;;;;5136091;28;20434;-54
2021/03/12 12:31:19;;;;;;;7.73;2.10;;;;;;;;;;5115030;28;20492;-57
2021/03/12 12:36:51;;;;;;;4.50;2.30;;;;;;;;;;5136190;28;20419;-53
2021/03/12 12:39:19;;;;;;;8.03;2.03;;;;;;;;;;5136548;28;20591;-55
2021/03/12 12:44:41;;;;;;;7.10;1.63;;;;;;;;;;5053159;28;20481;-54
2021/03/12 12:47:08;;;;;;;15.50;5.73;;;;;;;;;;5123038;28;20512;-55
2021/03/12 12:49:39;;;;;;;5.40;2.57;;;;;;;;;;5136323;28;20455;-57
2021/03/12 12:52:30;;;;;;;11.57;2.17;;;;;;;;;;5131451;28;20455;-56
2021/03/12 12:55:00;;;;;;;8.03;2.13;;;;;;;;;;5115320;28;20541;-53
2021/03/12 12:57:31;;;;;;;6.47;1.67;;;;;;;;;;5117702;28;20451;-57
2021/03/12 13:00:17;;;;;;;6.43;1.87;;;;;;;;;;5114671;28;20451;-57
2021/03/12 13:02:47;;;;;;;5.93;1.90;;;;;;;;;;5146427;27;20508;-54
2021/03/12 13:05:14;;;;;;;9.57;2.40;;;;;;;;;;5156227;27;20549;-54
2021/03/12 13:07:41;;;;;;;9.63;2.30;;;;;;;;;;5141060;27;20446;-59
2021/03/12 13:10:10;;;;;;;6.07;1.87;;;;;;;;;;5154954;27;20461;-51
2021/03/12 13:12:46;;;;;;;7.43;2.03;;;;;;;;;;5150992;27;20600;-61
2021/03/12 13:15:13;;;;;;;11.20;2.50;;;;;;;;;;5155259;27;20586;-57
2021/03/12 13:17:43;;;;;;;6.60;2.40;;;;;;;;;;5149540;27;20459;-59
2021/03/12 13:20:21;;;;;;;8.60;2.80;;;;;;;;;;5156863;27;20484;-53
2021/03/12 13:22:50;;;;;;;6.50;1.77;;;;;;;;;;5156283;27;20520;-57
2021/03/12 13:25:18;;;;;;;9.53;2.30;;;;;;;;;;5156091;27;20499;-54
2021/03/12 13:27:56;;;;;;;10.67;2.27;;;;;;;;;;5162726;27;20457;-58
2021/03/12 13:30:26;;;;;;;10.13;2.03;;;;;;;;;;5162522;27;20461;-56
2021/03/12 13:32:59;;;;;;;10.07;2.20;;;;;;;;;;5156772;27;20707;-51
2021/03/12 13:35:37;;;;;;;11.50;3.50;;;;;;;;;;5155600;27;20508;-59
2021/03/12 13:38:08;;;;;;;9.33;2.10;;;;;;;;;;5141618;27;20501;-53
2021/03/12 13:40:38;;;;;;;9.90;3.00;;;;;;;;;;5155840;27;20446;-53
2021/03/12 13:43:26;;;;;;;6.07;2.20;;;;;;;;;;5168255;27;20463;-52
2021/03/12 13:46:00;;;;;;;8.20;2.53;;;;;;;;;;5133717;27;20502;-57
2021/03/12 13:48:28;;;;;;;10.10;3.30;;;;;;;;;;5107360;28;20447;-54
2021/03/12 13:51:19;;;;;;;5.33;2.03;;;;;;;;;;5114550;28;20447;-61
2021/03/12 13:53:57;;;;;;;11.00;2.53;;;;;;;;;;5114406;28;20455;-53
2021/03/12 13:56:26;;;;;;;9.40;2.33;;;;;;;;;;5094951;28;20444;-54
2021/03/12 13:58:55;;;;;;;9.40;3.63;;;;;;;;;;5092545;28;20456;-57
2021/03/12 14:01:22;;;;;;;8.27;2.53;;;;;;;;;;5110950;28;20478;-56
2021/03/12 14:04:13;;;;;;;7.67;2.83;;;;;;;;;;5136432;28;20520;-60
2021/03/12 14:06:39;;;;;;;7.97;3.33;;;;;;;;;;5115212;28;20455;-58
2021/03/12 14:09:20;;;;;;;7.47;1.90;;;;;;;;;;5115781;28;20469;-51
2021/03/12 14:11:49;;;;;;;9.40;2.00;;;;;;;;;;5113008;28;20455;-55
2021/03/12 14:14:17;;;;;;;9.10;1.80;;;;;;;;;;5111985;28;20444;-59
2021/03/12 14:16:45;;;;;;;7.30;2.50;;;;;;;;;;5106991;28;20467;-55
2021/03/12 14:19:13;;;;;;;11.53;2.27;;;;;;;;;;5095560;28;20467;-58
2021/03/12 14:21:43;;;;;;;6.90;2.40;;;;;;;;;;5106133;28;20463;-54
2021/03/12 14:24:14;;;;;;;7.27;2.70;;;;;;;;;;5095399;28;20492;-58
2021/03/12 14:26:41;;;;;;;7.33;2.30;;;;;;;;;;5096504;28;20462;-57
2021/03/12 14:29:10;;;;;;;12.90;5.60;;;;;;;;;;5098702;28;20462;-60
2021/03/12 14:31:36;;;;;;;7.50;2.50;;;;;;;;;;5116013;28;20443;-57
2021/03/12 14:34:03;;;;;;;7.77;2.00;;;;;;;;;;5116024;28;20455;-51
2021/03/12 14:36:38;;;;;;;6.60;1.60;;;;;;;;;;5116285;28;20447;-54
2021/03/12 14:39:13;;;;;;;16.23;2.60;;;;;;;;;;5114909;28;20466;-52
2021/03/12 14:41:41;;;;;;;5.10;1.50;;;;;;;;;;5109617;28;20502;-59
2021/03/12 14:44:29;;;;;;;9.77;2.30;;;;;;;;;;5094946;28;20516;-59
2021/03/12 14:46:56;;;;;;;13.20;2.37;;;;;;;;;;5075640;28;20489;-54
2021/03/12 14:49:24;;;;;;;12.97;2.60;;;;;;;;;;5089242;28;20468;-56
2021/03/12 14:51:52;;;;;;;17.70;4.03;;;;;;;;;;5092005;28;20447;-55
2021/03/12 14:54:19;;;;;;;9.50;3.37;;;;;;;;;;5094340;28;20461;-49
2021/03/12 14:56:49;;;;;;;7.57;2.37;;;;;;;;;;5094559;28;20444;-56
2021/03/12 14:59:36;;;;;;;6.60;2.73;;;;;;;;;;5093943;28;20543;-55
2021/03/12 15:02:24;;;;;;;9.83;2.37;;;;;;;;;;5092445;28;20452;-56
2021/03/12 15:04:52;;;;;;;7.17;2.73;;;;;;;;;;5099165;28;20463;-52
2021/03/12 15:07:19;;;;;;;7.27;2.30;;;;;;;;;;5101538;28;20468;-54
2021/03/12 15:09:51;;;;;;;10.90;2.30;;;;;;;;;;5090610;28;20626;-57
2021/03/12 15:12:18;;;;;;;13.33;1.97;;;;;;;;;;5112501;28;20529;-51
2021/03/12 15:14:47;;;;;;;11.17;2.30;;;;;;;;;;5088922;28;20445;-53
2021/03/12 15:17:18;;;;;;;6.37;2.73;;;;;;;;;;5093221;28;20470;-60
2021/03/12 15:19:48;;;;;;;7.83;2.23;;;;;;;;;;5080469;28;20485;-56
2021/03/12 15:22:18;;;;;;;9.40;2.23;;;;;;;;;;5105816;28;20450;-54
2021/03/12 15:24:58;;;;;;;5.33;1.93;;;;;;;;;;5116728;28;20479;-59
2021/03/12 15:27:38;;;;;;;14.00;3.67;;;;;;;;;;5132049;28;20490;-55
2021/03/12 15:30:06;;;;;;;12.93;3.50;;;;;;;;;;5139647;28;20474;-54